This is the latest recevied weather packets stored in our database for station/object ZL3GL-4. If no packets are shown the sender has not sent any weather packets the latest 10 day(s).
| Time | Temp. | Humidity | Pressure | Rain* | Wind** | Luminosity | Snow |
|---|---|---|---|---|---|---|---|
| 1777632960 | 8.89° C | 100% | 1033.7 hPa | 0 mm | 0.45 m/s, 291° | - | - |
| 1777632113 | 8.33° C | 100% | 1033.9 hPa | 0 mm | 0.89 m/s, 332° | - | - |
| 1777631269 | 8.33° C | 100% | 1034.2 hPa | 0 mm | 0.89 m/s, 281° | - | - |
| 1777629586 | 8.33° C | 100% | 1034.2 hPa | 0 mm | 0.89 m/s, 284° | - | - |
| 1777628739 | 8.33° C | 100% | 1034.2 hPa | 0 mm | 1.34 m/s, 325° | - | - |
| 1777627896 | 8.33° C | 100% | 1034.3 hPa | 0 mm | 0.89 m/s, 309° | - | - |
| 1777627053 | 8.33° C | 100% | 1034.4 hPa | 0 mm | 0.89 m/s, 307° | - | - |
| 1777626212 | 8.33° C | 100% | 1034.3 hPa | 0 mm | 0.89 m/s, 291° | - | - |
| 1777625369 | 8.33° C | 100% | 1034.5 hPa | 0 mm | 0.89 m/s, 308° | - | - |
| 1777623684 | 8.89° C | 100% | 1034.7 hPa | 0 mm | 1.34 m/s, 308° | - | - |
| 1777622842 | 8.33° C | 99% | 1034.7 hPa | 0 mm | 0.45 m/s, 297° | - | - |
| 1777621995 | 8.33° C | 99% | 1034.7 hPa | 0 mm | 0.45 m/s, 316° | - | - |
| 1777621151 | 8.89° C | 99% | 1034.7 hPa | 0 mm | 0 m/s | - | - |
| 1777620307 | 8.89° C | 99% | 1034.6 hPa | 0 mm | 0 m/s | - | - |
| 1777619466 | 8.89° C | 98% | 1034.6 hPa | 0 mm | 0 m/s | - | - |
| 1777618620 | 9.44° C | 98% | 1034.4 hPa | 0 mm | 0.45 m/s, 297° | - | - |
| 1777617779 | 9.44° C | 98% | 1034.4 hPa | 0 mm | 0 m/s | - | - |
| 1777616934 | 9.44° C | 97% | 1034.3 hPa | 0 mm | 0.89 m/s, 294° | - | - |
| 1777616089 | 10° C | 97% | 1034.3 hPa | 0 mm | 0.45 m/s, 311° | - | - |
| 1777615243 | 10.56° C | 96% | 1034.4 hPa | 0 mm | 0 m/s | - | - |
| 1777614400 | 10.56° C | 95% | 1034.4 hPa | 0 mm | 0 m/s | - | - |
| 1777613557 | 11.11° C | 95% | 1034.6 hPa | 0 mm | 0 m/s | - | - |
| 1777611871 | 11.67° C | 93% | 1034.9 hPa | 0 mm | 0.89 m/s, 20° | - | - |
| 1777611030 | 12.22° C | 92% | 1035 hPa | 0 mm | 0.89 m/s, 83° | - | - |
| 1777610185 | 12.22° C | 89% | 1035 hPa | 0 mm | 1.79 m/s, 159° | - | - |
* Rain latest hour (hover to see other rain measurements)
** Current wind speed in m/s (hover to see current wind gust speed)